Latest Weather Observations for Mudgee

IDN60801

Issued at 5:33 pm EST Monday 25 July 2016 (issued every 30 minutes, with the page automatically refreshed every 10 minutes)

About weather observations | Map of weather stations | Latest weather observations for NSW | Other Formats
Station Details ID: 062101 Name: MUDGEE AIRPORT AWS Lat: -32.56 Lon: 149.61 Height: 471.0 m
Data from the previous 72 hours. | See also: Recent months at Mudgee
Date/Time
EST
Temp
°C
App
Temp
°C
Dew
Point
°C
Rel
Hum
%
Delta-T
°C
Wind Press
QNH
hPa
Press
MSL
hPa
Rain since
9am
mm
Dir  Spd
km/h
Gust
km/h
Spd
kts
Gust
kts
25/05:30pm 9.2 5.5 4.4 72 2.2 NW 13 19 7 10 1017.2 1017.8 0.0
25/05:00pm 9.4 4.6 4.4 71 2.3 WNW 19 26 10 14 1016.8 1017.5 0.0
25/04:30pm 10.2 4.7 4.1 66 2.8 WNW 22 28 12 15 1016.4 1017.0 0.0
25/04:00pm 9.9 4.7 3.6 65 2.8 WNW 20 28 11 15 1016.2 1016.8 0.0
25/03:30pm 10.4 3.7 3.9 64 3.0 NW 28 33 15 18 1016.3 1016.9 0.0
25/03:00pm 10.2 3.9 3.9 65 2.9 WNW 26 33 14 18 1016.1 1016.7 0.0
25/02:30pm 10.8 5.9 4.3 64 3.0 W 19 30 10 16 1016.2 1016.8 0.0
25/02:00pm 9.7 4.8 3.9 67 2.6 W 19 24 10 13 1016.3 1016.9 0.0
25/01:30pm 10.1 4.2 3.8 65 2.8 W 24 35 13 19 1016.4 1017.0 0.0
25/01:12pm 9.4 4.3 4.0 69 2.4 WNW 20 32 11 17 1016.7 1017.4 0.0
25/01:00pm 9.4 3.5 4.0 69 2.4 W 24 32 13 17 1016.8 1017.5 0.0
25/12:30pm 8.8 3.3 4.0 72 2.2 W 22 28 12 15 1017.2 1017.8 0.0
25/12:29pm 8.9 3.4 4.1 72 2.2 W 22 28 12 15 1017.2 1017.8 0.0
25/12:00pm 8.7 3.3 4.5 75 1.9 W 22 30 12 16 1017.6 1018.2 0.0
25/11:30am 8.6 3.5 4.2 74 2.0 W 20 28 11 15 1017.8 1018.4 0.0
25/11:00am 8.4 2.5 3.8 73 2.0 W 24 33 13 18 1018.0 1018.6 0.0
25/10:43am 8.3 2.8 3.9 74 2.0 W 22 30 12 16 1018.1 1018.7 0.0
25/10:30am 8.1 2.2 3.8 74 1.9 W 24 33 13 18 1018.1 1018.7 0.0
25/10:07am 8.0 2.5 4.0 76 1.8 W 22 30 12 16 1017.9 1018.5 0.0
25/10:00am 7.9 2.0 3.9 76 1.8 WSW 24 30 13 16 1017.9 1018.5 0.0
25/09:30am 7.9 2.8 3.9 76 1.8 WNW 20 28 11 15 1017.7 1018.3 0.0
25/09:00am 7.4 2.6 4.5 82 1.3 NW 19 26 10 14 1017.3 1017.9 0.4
25/08:30am 6.6 2.5 4.3 85 1.0 NNW 15 20 8 11 1017.2 1017.8 0.4
25/08:00am 6.2 1.8 4.7 90 0.7 NNW 17 22 9 12 1016.7 1017.4 0.4
25/07:30am 5.5 1.5 4.8 95 0.3 NNW 15 20 8 11 1016.6 1017.3 0.4
25/07:00am 4.6 0.1 4.2 97 0.2 NNW 17 20 9 11 1016.3 1016.9 0.4
25/06:30am 4.8 0.3 4.4 97 0.2 NNW 17 20 9 11 1015.7 1016.3 0.4
25/06:00am 5.3 1.7 4.9 97 0.2 NW 13 15 7 8 1015.4 1016.0 0.4
25/05:30am 5.3 1.3 4.7 96 0.3 NNW 15 20 8 11 1014.9 1015.5 0.4
25/05:00am 6.0 2.0 5.0 93 0.4 NNW 15 19 8 10 1014.5 1015.1 0.4
25/04:30am 6.3 2.7 4.9 91 0.6 NW 13 17 7 9 1014.2 1014.8 0.4
25/04:00am 6.9 3.3 5.2 89 0.8 NW 13 17 7 9 1014.1 1014.7 0.2
25/03:30am 7.8 4.0 5.8 87 0.9 NNW 15 22 8 12 1014.0 1014.6 0.2
25/03:00am 7.7 3.9 6.0 89 0.8 NNW 15 19 8 10 1014.1 1014.7 0.2
25/02:30am 7.9 4.2 6.2 89 0.8 NNW 15 20 8 11 1014.1 1014.7 0.2
25/02:00am 8.0 3.5 6.0 87 0.9 NNW 19 26 10 14 1014.1 1014.7 0.2
25/01:30am 8.0 3.5 6.1 88 0.9 NNW 19 26 10 14 1014.0 1014.6 0.2
25/01:00am 7.8 4.4 6.1 89 0.8 NNW 13 19 7 10 1014.1 1014.7 0.2
25/12:30am 7.7 3.6 6.0 89 0.8 NNW 17 24 9 13 1014.3 1014.9 0.2
25/12:00am 7.0 4.0 6.1 94 0.4 NNW 11 15 6 8 1014.3 1014.9 0.2
 
Date/Time
EST
Temp
°C
App
Temp
°C
Dew
Point
°C
Rel
Hum
%
Delta-T
°C
Wind Press
QNH
hPa
Press
MSL
hPa
Rain since
9am
mm
Dir  Spd
km/h
Gust
km/h
Spd
kts
Gust
kts
24/11:30pm 7.1 3.7 6.0 93 0.5 NNW 13 17 7 9 1014.2 1014.8 0.2
24/11:00pm 5.9 2.4 5.5 97 0.2 N 13 19 7 10 1014.2 1014.8 0.2
24/10:30pm 5.0 2.4 4.4 96 0.3 NNW 7 11 4 6 1014.4 1015.0 0.2
24/10:00pm 4.5 2.7 3.6 94 0.4 WSW 2 7 1 4 1014.7 1015.3 0.2
24/09:30pm 5.0 2.4 4.3 95 0.3 N 7 11 4 6 1014.6 1015.2 0.2
24/09:00pm 6.0 4.8 4.8 92 0.5 CALM 0 0 0 0 1015.0 1015.6 0.2
24/08:30pm 6.0 3.8 5.1 94 0.4 SSW 6 7 3 4 1014.7 1015.3 0.2
24/08:00pm 6.0 3.1 4.6 91 0.6 N 9 13 5 7 1014.7 1015.3 0.2
24/07:30pm 6.3 2.7 4.9 91 0.6 N 13 15 7 8 1014.9 1015.5 0.2
24/07:00pm 6.4 3.8 4.4 87 0.9 N 7 9 4 5 1015.2 1015.8 0.0
24/06:30pm 6.7 4.0 3.5 80 1.4 N 7 9 4 5 1014.9 1015.5 0.0
24/06:00pm 6.3 3.5 3.3 81 1.3 NNW 7 9 4 5 1014.6 1015.2 0.0
24/05:30pm 6.6 2.9 2.3 74 1.8 NNW 11 11 6 6 1014.1 1014.7 0.0
24/05:00pm 7.4 3.6 1.5 66 2.5 NNW 11 17 6 9 1013.9 1014.5 0.0
24/04:30pm 8.9 4.3 1.6 60 3.1 NNW 15 20 8 11 1013.6 1014.2 0.0
24/04:00pm 8.5 3.9 1.4 61 3.0 NNW 15 20 8 11 1013.5 1014.1 0.0
24/03:30pm 8.8 4.1 0.8 57 3.3 NW 15 19 8 10 1013.7 1014.3 0.0
24/03:00pm 9.4 4.6 0.3 53 3.8 WNW 15 22 8 12 1014.1 1014.7 0.0
24/02:30pm 8.7 4.2 -0.1 54 3.6 NNW 13 17 7 9 1014.3 1014.9 0.0
24/02:00pm 8.8 4.4 0.3 55 3.5 NW 13 20 7 11 1014.5 1015.1 0.0
24/01:30pm 8.5 4.7 -0.5 53 3.6 NW 9 15 5 8 1015.1 1015.7 0.0
24/01:00pm 8.1 3.8 -2.0 49 3.9 WNW 11 17 6 9 1015.0 1015.6 0.0
24/12:30pm 8.2 4.4 -0.5 54 3.5 NW 9 15 5 8 1015.5 1016.1 0.0
24/12:00pm 7.3 4.0 0.3 61 2.8 NNW 7 11 4 6 1016.0 1016.6 0.0
24/11:30am 6.6 3.4 0.7 66 2.4 N 7 9 4 5 1016.9 1017.6 0.0
24/11:00am 6.1 3.0 1.6 73 1.9 N 7 11 4 6 1017.4 1018.0 0.0
24/10:30am 5.5 3.1 2.2 79 1.4 NNW 4 11 2 6 1018.7 1019.4 0.0
24/10:00am 4.2 1.3 1.7 84 1.0 NW 6 7 3 4 1018.4 1019.1 0.0
24/09:30am 3.4 1.6 1.3 86 0.8 CALM 0 2 0 1 1017.9 1018.5 0.0
24/09:00am 2.5 0.3 1.2 91 0.5 E 2 6 1 3 1017.4 1018.0 0.0
24/08:30am 1.8 0.0 1.1 95 0.3 CALM 0 0 0 0 1017.4 1018.0 0.0
24/08:00am 1.2 -1.8 0.8 97 0.2 NNE 6 7 3 4 1017.2 1017.8 0.0
24/07:30am 0.8 -2.5 0.2 96 0.2 NNE 7 9 4 5 1016.7 1017.4 0.0
24/07:00am 0.4 -3.7 0.0 97 0.1 NNE 11 13 6 7 1016.1 1016.7 0.0
24/06:30am -0.7 -3.3 -1.7 93 0.3 ENE 2 7 1 4 1015.5 1016.1 0.0
24/06:00am 0.1 -2.1 -1.2 91 0.5 CALM 0 0 0 0 1015.6 1016.2 0.0
24/05:30am 0.8 -2.5 -1.0 88 0.7 ENE 6 6 3 3 1015.3 1015.9 0.0
24/05:00am 0.6 -3.3 -1.6 85 0.8 NNE 9 11 5 6 1015.5 1016.1 0.0
24/04:30am 2.0 -0.2 -1.6 77 1.3 CALM 0 6 0 3 1015.5 1016.1 0.0
24/04:00am 3.6 1.4 -1.2 71 1.8 CALM 0 0 0 0 1015.3 1015.9 0.0
24/03:30am 4.0 1.8 -1.4 68 2.0 CALM 0 0 0 0 1015.5 1016.1 0.0
24/03:00am 4.2 -0.4 -1.2 68 2.0 WSW 13 19 7 10 1014.9 1015.5 0.0
24/02:30am 5.2 -0.2 -1.5 62 2.5 WSW 17 26 9 14 1015.0 1015.6 0.0
24/02:00am 5.2 0.2 -1.3 63 2.5 WSW 15 24 8 13 1015.4 1016.0 0.0
24/01:30am 6.2 0.4 -1.7 57 3.0 SW 19 24 10 13 1015.2 1015.8 0.0
24/01:00am 6.4 1.1 -0.8 60 2.8 SW 17 26 9 14 1015.7 1016.3 0.0
24/12:30am 6.4 0.2 -0.3 62 2.7 SW 22 32 12 17 1015.6 1016.2 0.0
24/12:00am 6.8 0.3 0.3 63 2.6 SW 24 35 13 19 1015.6 1016.2 0.0
 
Date/Time
EST
Temp
°C
App
Temp
°C
Dew
Point
°C
Rel
Hum
%
Delta-T
°C
Wind Press
QNH
hPa
Press
MSL
hPa
Rain since
9am
mm
Dir  Spd
km/h
Gust
km/h
Spd
kts
Gust
kts
23/11:30pm 7.1 0.2 0.1 61 2.8 WSW 26 41 14 22 1015.9 1016.5 0.0
23/11:00pm 6.7 -0.1 0.8 66 2.4 WSW 26 35 14 19 1015.9 1016.5 0.0
23/10:30pm 7.1 1.5 1.0 65 2.5 WSW 20 30 11 16 1015.8 1016.4 0.0
23/10:00pm 6.8 2.7 2.1 72 2.0 W 13 22 7 12 1015.8 1016.4 0.0
23/09:30pm 7.1 3.5 3.2 76 1.7 W 11 15 6 8 1015.4 1016.0 0.0
23/09:00pm 7.1 3.9 2.8 74 1.8 W 9 19 5 10 1015.4 1016.0 0.0
23/08:30pm 7.3 3.0 3.0 74 1.9 WSW 15 22 8 12 1014.9 1015.5 0.0
23/08:00pm 8.0 2.9 3.1 71 2.1 W 19 33 10 18 1014.3 1014.9 0.0
23/07:30pm 7.9 1.5 3.0 71 2.1 W 26 35 14 19 1014.4 1015.0 0.0
23/07:00pm 7.7 2.6 3.2 73 2.0 W 19 26 10 14 1014.1 1014.7 0.0
23/06:30pm 8.0 2.9 3.3 72 2.1 W 19 24 10 13 1013.6 1014.2 0.0
23/06:00pm 8.3 3.2 3.2 70 2.2 W 19 26 10 14 1013.2 1013.8 0.0
23/05:30pm 8.9 2.8 2.7 65 2.7 W 24 30 13 16 1013.1 1013.7 0.0
23/05:00pm 9.5 3.0 2.8 63 2.9 W 26 39 14 21 1013.0 1013.5 0.0
23/04:30pm 9.7 4.5 3.4 65 2.8 W 20 32 11 17 1012.5 1013.1 0.0
23/04:00pm 9.2 2.5 3.8 69 2.4 WSW 28 37 15 20 1012.2 1012.8 0.0
23/03:49pm 9.9 3.0 2.7 61 3.2 W 28 46 15 25 1012.0 1012.6 0.0
23/03:30pm 10.5 4.2 3.5 62 3.2 W 26 35 14 19 1011.7 1012.3 0.0
23/03:00pm 10.5 3.2 4.4 66 2.8 W 32 41 17 22 1011.6 1012.2 0.0
23/02:30pm 10.0 2.4 3.7 65 2.8 W 33 44 18 24 1011.3 1011.9 0.0
23/02:00pm 9.8 2.1 3.5 65 2.8 W 33 43 18 23 1011.0 1011.5 0.0
23/01:30pm 10.4 2.3 3.4 62 3.1 WSW 35 48 19 26 1010.9 1011.4 0.0
23/01:00pm 10.8 4.1 3.4 60 3.3 W 28 37 15 20 1010.7 1011.2 0.0
23/12:35pm 10.9 3.3 2.7 57 3.6 W 32 54 17 29 1010.7 1011.2 0.0
23/12:30pm 11.0 4.1 2.3 55 3.8 W 28 39 15 21 1010.8 1011.3 0.0
23/12:00pm 10.4 3.9 2.5 58 3.5 W 26 37 14 20 1011.0 1011.5 0.0
23/11:33am 11.3 3.0 2.3 54 4.0 WNW 35 56 19 30 1010.9 1011.4 0.0
23/11:30am 11.9 4.1 2.9 54 4.0 WNW 33 44 18 24 1011.0 1011.5 0.0
23/11:00am 11.1 3.9 2.9 57 3.7 W 30 44 16 24 1011.0 1011.5 0.0
23/10:30am 10.2 3.4 3.3 62 3.1 W 28 39 15 21 1011.0 1011.5 0.0
23/10:00am 10.1 4.1 3.4 63 3.0 W 24 35 13 19 1010.8 1011.3 0.0
23/09:30am 10.4 1.4 2.5 58 3.5 W 39 52 21 28 1010.7 1011.2 0.0
23/09:19am 9.7 1.8 2.3 60 3.2 WSW 33 54 18 29 1010.5 1011.0 0.0
23/09:00am 10.7 4.2 4.6 66 2.8 W 28 39 15 21 1010.0 1010.6 1.4
23/08:30am 10.2 3.6 4.4 67 2.7 W 28 41 15 22 1009.4 1009.9 1.4
23/08:14am 10.2 2.9 4.4 67 2.7 W 32 50 17 27 1009.3 1009.8 1.4
23/08:00am 10.2 3.2 4.1 66 2.8 W 30 44 16 24 1009.2 1009.7 1.4
23/07:30am 10.3 3.3 4.0 65 2.9 W 30 48 16 26 1008.6 1009.1 1.4
23/07:07am 10.3 3.3 4.0 65 2.9 W 30 52 16 28 1008.3 1008.8 1.4
23/07:00am 10.3 3.2 3.8 64 3.0 W 30 43 16 23 1008.2 1008.7 1.4
23/06:33am 10.6 3.2 4.1 64 3.0 W 32 52 17 28 1007.8 1008.4 1.4
23/06:30am 10.8 3.2 4.0 63 3.1 W 33 44 18 24 1007.7 1008.3 1.4
23/06:12am 11.3 4.4 4.5 63 3.2 W 30 48 16 26 1007.3 1007.8 1.4
23/06:00am 11.4 5.3 4.6 63 3.2 W 26 39 14 21 1007.0 1007.5 1.4
23/05:30am 11.7 5.2 4.7 62 3.3 W 28 46 15 25 1006.5 1007.0 1.4
23/05:25am 11.8 5.3 4.5 61 3.4 W 28 46 15 25 1006.4 1006.9 1.4
23/05:00am 12.4 7.1 4.9 60 3.6 W 22 35 12 19 1005.9 1006.4 1.4
23/04:30am 12.5 5.2 4.7 59 3.7 W 32 48 17 26 1005.7 1006.2 1.4
23/04:00am 12.9 5.4 4.3 56 4.0 W 33 61 18 33 1005.2 1005.7 1.4
23/03:38am 13.1 6.6 4.5 56 4.0 W 28 48 15 26 1005.4 1005.9 1.4
23/03:30am 13.3 7.1 4.5 55 4.1 W 26 43 14 23 1005.1 1005.6 1.4
23/03:00am 13.3 7.9 6.4 63 3.4 WNW 24 39 13 21 1005.1 1005.6 1.4
23/02:51am 13.4 6.1 7.0 65 3.2 W 35 50 19 27 1005.2 1005.7 1.4
23/02:30am 13.2 5.8 8.5 73 2.4 W 37 57 20 31 1004.5 1005.0 1.4
23/02:00am 12.7 6.3 10.8 88 1.0 WSW 35 57 19 31 1004.1 1004.6 1.4
23/01:56am 12.8 5.3 10.7 87 1.1 WSW 41 57 22 31 1003.9 1004.3 1.4
23/01:51am 12.9 4.5 11.0 88 1.0 WSW 46 69 25 37 1003.9 1004.3 1.2
23/01:42am 16.5 7.8 10.1 66 3.5 WNW 46 76 25 41 1002.9 1003.4 0.0
23/01:30am 19.3 12.3 13.7 70 3.3 NW 43 61 23 33 1002.2 1002.6 0.0
23/01:00am 19.2 12.6 13.8 71 3.2 NW 41 59 22 32 1002.2 1002.6 0.0
23/12:30am 19.5 13.8 14.1 71 3.2 NW 37 61 20 33 1002.6 1003.1 0.0
23/12:03am 19.4 13.9 14.6 74 2.9 NNW 37 56 20 30 1002.9 1003.4 0.0
23/12:00am 19.5 13.6 14.7 74 2.9 NNW 39 56 21 30 1002.9 1003.4 0.0
 
Date/Time
EST
Temp
°C
App
Temp
°C
Dew
Point
°C
Rel
Hum
%
Delta-T
°C
Wind Press
QNH
hPa
Press
MSL
hPa
Rain since
9am
mm
Dir  Spd
km/h
Gust
km/h
Spd
kts
Gust
kts
22/11:43pm 19.5 14.4 14.7 74 2.9 NNW 35 56 19 30 1003.0 1003.5 0.0
22/11:30pm 19.6 14.5 14.8 74 2.9 NNW 35 48 19 26 1003.1 1003.6 0.0
22/11:00pm 19.7 14.1 15.4 76 2.6 NW 39 59 21 32 1003.4 1003.9 0.0
22/10:51pm 19.7 14.5 15.6 77 2.5 NW 37 56 20 30 1003.5 1004.0 0.0
22/10:30pm 19.7 13.5 16.0 79 2.3 NW 43 57 23 31 1003.7 1004.1 0.0
22/10:01pm 19.5 15.1 16.7 84 1.7 NW 35 59 19 32 1004.0 1004.4 0.0
22/10:00pm 19.2 14.8 16.6 85 1.6 NW 35 52 19 28 1004.1 1004.6 0.0
22/09:30pm 19.4 14.3 16.8 85 1.6 NW 39 57 21 31 1004.5 1005.0 0.0
22/09:00pm 19.2 14.6 17.2 88 1.2 NW 37 56 20 30 1004.7 1005.2 0.0
22/08:56pm 19.2 15.4 17.2 88 1.2 NW 33 56 18 30 1004.9 1005.4 0.0
22/08:36pm 18.9 15.8 17.4 91 0.9 NNW 30 39 16 21 1005.1 1005.6 0.0
22/08:30pm 18.8 16.1 17.5 92 0.8 NNW 28 50 15 27 1005.3 1005.8 0.0
22/08:25pm 19.0 16.4 17.8 93 0.8 NNW 28 50 15 27 1005.4 1005.9 0.0
22/08:00pm 18.4 16.1 17.6 95 0.5 NNW 26 35 14 19 1005.7 1006.2 0.0
22/07:30pm 18.5 15.7 17.3 93 0.7 NNW 28 43 15 23 1005.6 1006.1 0.0
22/07:00pm 18.5 16.3 17.0 91 0.9 NNW 24 33 13 18 1006.2 1006.7 0.0
22/06:30pm 18.0 16.3 16.3 90 1.0 NNW 20 30 11 16 1006.0 1006.5 0.0
22/06:00pm 18.4 16.6 16.0 86 1.5 NNW 20 30 11 16 1006.3 1006.8 0.0

Other Formats:

Comma delimited format used in spreadsheet applications
http://www.bom.gov.au/fwo/IDN60801/IDN60801.94727.axf

JavaScript Object Notation format (JSON) in row-major order
http://www.bom.gov.au/fwo/IDN60801/IDN60801.94727.json